createdAt,value
2016-12-11T00:00:07.819Z,22.18
2016-12-11T00:01:17.773Z,22.15
2016-12-11T00:02:27.739Z,22.25
2016-12-11T00:03:37.360Z,22.19
2016-12-11T00:04:47.292Z,22.18
2016-12-11T00:05:57.239Z,22.16
2016-12-11T00:07:07.181Z,22.16
2016-12-11T00:08:17.177Z,22.18
2016-12-11T00:09:27.105Z,22.18
2016-12-11T00:10:36.735Z,22.14
2016-12-11T00:11:46.672Z,22.14
2016-12-11T00:12:55.990Z,22.21
2016-12-11T00:14:05.928Z,22.12
2016-12-11T00:15:15.241Z,22.14
2016-12-11T00:16:25.191Z,22.19
2016-12-11T00:17:34.820Z,22.16
2016-12-11T00:18:44.446Z,22.16
2016-12-11T00:19:54.073Z,22.19
2016-12-11T00:21:03.387Z,22.23
2016-12-11T00:22:13.332Z,22.1
2016-12-11T00:23:22.954Z,22.21
2016-12-11T00:24:32.269Z,22.14
2016-12-11T00:25:41.895Z,22.16
2016-12-11T00:26:51.503Z,22.15
2016-12-11T00:28:00.815Z,22.14
2016-12-11T00:29:10.762Z,22.25
2016-12-11T00:30:20.700Z,22.15
2016-12-11T00:31:30.020Z,22.23
2016-12-11T00:32:39.035Z,22.15
2016-12-11T00:33:49.278Z,22.12
2016-12-11T00:34:58.595Z,22.18
2016-12-11T00:36:08.229Z,22.14
2016-12-11T00:37:18.460Z,22.15
2016-12-11T00:38:27.787Z,22.14
2016-12-11T00:39:37.409Z,22.16
2016-12-11T00:40:47.640Z,22.12
2016-12-11T00:41:57.873Z,22.1
2016-12-11T00:43:07.496Z,22.18
2016-12-11T00:44:16.512Z,22.1
2016-12-11T00:45:25.517Z,22.18
2016-12-11T00:46:34.832Z,22.19
2016-12-11T00:47:43.906Z,22.18
2016-12-11T00:48:53.870Z,22.18
2016-12-11T00:50:03.522Z,22.19
2016-12-11T00:51:13.450Z,22.16
2016-12-11T00:52:23.686Z,22.12
2016-12-11T00:53:33.622Z,22.16
2016-12-11T00:54:43.884Z,22.12
2016-12-11T00:55:53.827Z,22.18
2016-12-11T00:57:03.147Z,22.21
2016-12-11T00:58:13.114Z,22.16
2016-12-11T00:59:22.442Z,22.22
2016-12-11T01:00:31.790Z,22.18
2016-12-11T01:01:41.436Z,22.14
2016-12-11T01:02:51.090Z,22.14
2016-12-11T01:04:01.013Z,22.15
2016-12-11T01:05:10.969Z,22.19
2016-12-11T01:06:21.212Z,22.14
2016-12-11T01:07:30.844Z,22.15
2016-12-11T01:08:40.490Z,22.16
2016-12-11T01:09:50.410Z,22.18
2016-12-11T01:11:00.352Z,22.03
2016-12-11T01:12:10.654Z,22.18
2016-12-11T01:13:20.909Z,22.12
2016-12-11T01:14:30.222Z,22.14
2016-12-11T01:15:39.853Z,22.15
2016-12-11T01:16:49.783Z,22.14
2016-12-11T01:17:59.733Z,22.14
2016-12-11T01:19:09.677Z,22.21
2016-12-11T01:20:19.626Z,22.19
2016-12-11T01:21:29.864Z,22.16
2016-12-11T01:22:39.821Z,22.19
2016-12-11T01:23:49.445Z,22.23
2016-12-11T01:24:59.693Z,22.21
2016-12-11T01:26:09.941Z,22.16
2016-12-11T01:27:20.196Z,22.19
2016-12-11T01:28:30.459Z,22.14
2016-12-11T01:29:40.400Z,22.18
2016-12-11T01:30:50.019Z,22.18
2016-12-11T01:32:00.268Z,22.18
2016-12-11T01:33:10.521Z,22.14
2016-12-11T01:34:20.777Z,22.18
2016-12-11T01:35:30.701Z,22.16
2016-12-11T01:36:40.011Z,22.16
2016-12-11T01:37:49.949Z,22.14
2016-12-11T01:38:59.571Z,22.18
2016-12-11T01:40:09.219Z,22.22
2016-12-11T01:41:19.159Z,22.16
2016-12-11T01:42:28.788Z,22.18
2016-12-11T01:43:38.398Z,22.15
2016-12-11T01:44:48.336Z,22.21
2016-12-11T01:45:58.576Z,22.14
2016-12-11T01:47:08.202Z,22.15
2016-12-11T01:48:18.432Z,22.15
2016-12-11T01:49:28.050Z,22.19
2016-12-11T01:50:37.361Z,22.16
2016-12-11T01:51:47.301Z,22.23
2016-12-11T01:52:56.629Z,22.15
2016-12-11T01:54:06.257Z,22.16
2016-12-11T01:55:16.180Z,22.21
2016-12-11T01:56:25.816Z,22.15
2016-12-11T01:57:35.750Z,22.22
2016-12-11T01:58:45.783Z,22.22
2016-12-11T01:59:55.096Z,22.14
2016-12-11T02:01:04.415Z,22.16
2016-12-11T02:02:14.355Z,22.12
2016-12-11T02:03:24.284Z,22.18
2016-12-11T02:04:34.226Z,22.15
2016-12-11T02:05:43.890Z,22.12
2016-12-11T02:06:53.807Z,22.12
2016-12-11T02:08:03.758Z,22.21
2016-12-11T02:09:13.373Z,22.25
2016-12-11T02:10:23.329Z,22.19
2016-12-11T02:11:33.277Z,22.06
2016-12-11T02:12:43.213Z,22.14
2016-12-11T02:13:53.164Z,22.15
2016-12-11T02:15:02.777Z,22.19
2016-12-11T02:16:12.433Z,22.15
2016-12-11T02:17:22.370Z,22.1
2016-12-11T02:18:32.285Z,22.22
2016-12-11T02:19:42.220Z,22.14
2016-12-11T02:20:52.149Z,22.21
2016-12-11T02:22:02.131Z,22.14
2016-12-11T02:23:11.753Z,22.22
2016-12-11T02:24:22.015Z,22.12
2016-12-11T02:25:31.965Z,22.18
2016-12-11T02:26:41.901Z,22.14
2016-12-11T02:27:51.219Z,22.1
2016-12-11T02:29:01.473Z,22.15
2016-12-11T02:30:11.083Z,22.21
2016-12-11T02:31:20.387Z,22.14
2016-12-11T02:32:30.615Z,22.16
2016-12-11T02:33:40.548Z,22.1
2016-12-11T02:34:50.483Z,22.15
2016-12-11T02:35:59.792Z,22.15
2016-12-11T02:37:09.725Z,22.21
2016-12-11T02:38:19.036Z,22.18
2016-12-11T02:39:28.969Z,22.19
2016-12-11T02:40:38.918Z,22.22
2016-12-11T02:41:48.251Z,22.22
2016-12-11T02:42:57.563Z,22.18
2016-12-11T02:44:07.485Z,22.21
2016-12-11T02:45:17.433Z,22.16
2016-12-11T02:46:27.072Z,22.19
2016-12-11T02:47:36.707Z,22.15
2016-12-11T02:48:46.633Z,22.22
2016-12-11T02:49:56.586Z,22.19
2016-12-11T02:51:06.513Z,22.21
2016-12-11T02:52:16.765Z,22.15
2016-12-11T02:53:27.010Z,22.08
2016-12-11T02:54:36.023Z,22.1
2016-12-11T02:55:46.258Z,22.19
2016-12-11T02:56:55.573Z,22.15
2016-12-11T02:58:05.499Z,22.16
2016-12-11T02:59:15.148Z,22.22
2016-12-11T03:00:25.075Z,22.18
2016-12-11T03:01:35.010Z,22.19
2016-12-11T03:02:44.017Z,22.14
2016-12-11T03:03:54.277Z,22.22
2016-12-11T03:05:04.558Z,22.15
2016-12-11T03:06:14.489Z,22.21
2016-12-11T03:07:24.736Z,22.15
2016-12-11T03:08:34.675Z,22.15
2016-12-11T03:09:44.310Z,22.12
2016-12-11T03:10:54.246Z,22.12
2016-12-11T03:12:04.189Z,22.15
2016-12-11T03:13:13.508Z,22.12
2016-12-11T03:14:23.132Z,22.06
2016-12-11T03:15:32.748Z,22.12
2016-12-11T03:16:42.993Z,22.12
2016-12-11T03:17:52.945Z,22.08
2016-12-11T03:19:03.194Z,22.1
2016-12-11T03:20:13.114Z,22.14
2016-12-11T03:21:22.750Z,22.14
2016-12-11T03:22:32.990Z,22.12
2016-12-11T03:23:43.236Z,22.12
2016-12-11T03:24:53.179Z,22.12
2016-12-11T03:26:02.802Z,22.19
2016-12-11T03:27:12.418Z,22.12
2016-12-11T03:28:22.050Z,22.1
2016-12-11T03:29:31.050Z,22.16
2016-12-11T03:30:40.060Z,22.16
2016-12-11T03:31:49.703Z,22.15
2016-12-11T03:32:59.645Z,22.16
2016-12-11T03:34:09.604Z,22.15
2016-12-11T03:35:19.229Z,22.14
2016-12-11T03:36:28.558Z,22.16
2016-12-11T03:37:38.183Z,22.12
2016-12-11T03:38:47.501Z,22.06
2016-12-11T03:39:57.453Z,22.16
2016-12-11T03:41:07.409Z,22.15
2016-12-11T03:42:17.647Z,22.14
2016-12-11T03:43:27.576Z,22.18
2016-12-11T03:44:37.230Z,22.08
2016-12-11T03:45:47.165Z,22.1
2016-12-11T03:46:56.792Z,22.12
2016-12-11T03:48:07.027Z,22.15
2016-12-11T03:49:16.961Z,22.07
2016-12-11T03:50:26.583Z,22.14
2016-12-11T03:51:36.810Z,22.15
2016-12-11T03:52:46.440Z,22.14
2016-12-11T03:53:56.370Z,22.04
2016-12-11T03:55:06.302Z,22.07
2016-12-11T03:56:15.935Z,22.14
2016-12-11T03:57:25.547Z,22.16
2016-12-11T03:58:35.800Z,22.06
2016-12-11T03:59:45.422Z,22.07
2016-12-11T04:00:55.055Z,22.07
2016-12-11T04:02:04.372Z,22
2016-12-11T04:03:14.019Z,22.03
2016-12-11T04:04:23.649Z,22.14
2016-12-11T04:05:33.582Z,22.14
2016-12-11T04:06:43.514Z,22.06
2016-12-11T04:07:53.761Z,22.01
2016-12-11T04:09:03.706Z,22.07
2016-12-11T04:10:13.668Z,22.14
2016-12-11T04:11:23.906Z,22.04
2016-12-11T04:12:33.521Z,22.14
2016-12-11T04:13:43.481Z,22.04
2016-12-11T04:14:53.421Z,22.03
2016-12-11T04:16:03.048Z,22.1
2016-12-11T04:17:12.367Z,22.06
2016-12-11T04:18:21.675Z,22.12
2016-12-11T04:19:31.601Z,22.03
2016-12-11T04:20:41.549Z,22.15
2016-12-11T04:21:51.837Z,22.06
2016-12-11T04:23:02.080Z,22.03
2016-12-11T04:24:11.714Z,22.04
2016-12-11T04:25:21.028Z,22.08
2016-12-11T04:26:30.650Z,22.04
2016-12-11T04:27:40.282Z,22.01
2016-12-11T04:28:49.595Z,22.07
2016-12-11T04:29:58.909Z,22
2016-12-11T04:31:08.849Z,22.01
2016-12-11T04:32:19.092Z,22.01
2016-12-11T04:33:28.404Z,22.07
2016-12-11T04:34:38.333Z,22.1
2016-12-11T04:35:47.955Z,22.03
2016-12-11T04:36:57.597Z,22.03
2016-12-11T04:38:07.528Z,22
2016-12-11T04:39:17.761Z,21.99
2016-12-11T04:40:27.082Z,22.16
2016-12-11T04:41:36.706Z,22.03
2016-12-11T04:42:45.705Z,22
2016-12-11T04:43:55.931Z,22.07
2016-12-11T04:45:05.862Z,22.14
2016-12-11T04:46:15.182Z,22.08
2016-12-11T04:47:24.798Z,22
2016-12-11T04:48:34.411Z,22.01
2016-12-11T04:49:44.336Z,22.06
2016-12-11T04:50:53.962Z,22.08
2016-12-11T04:52:03.895Z,22.01
2016-12-11T04:53:14.138Z,22.07
2016-12-11T04:54:24.063Z,22.14
2016-12-11T04:55:33.703Z,22.04
2016-12-11T04:56:43.946Z,22.07
2016-12-11T04:57:54.197Z,22.07
2016-12-11T04:59:04.130Z,21.99
2016-12-11T05:00:14.059Z,22.01
2016-12-11T05:01:23.987Z,22.01
2016-12-11T05:02:33.608Z,22.06
2016-12-11T05:03:43.898Z,22.04
2016-12-11T05:04:53.816Z,22
2016-12-11T05:06:03.130Z,22.08
2016-12-11T05:07:12.760Z,22
2016-12-11T05:08:22.411Z,22.03
2016-12-11T05:09:32.634Z,21.96
2016-12-11T05:10:42.556Z,22
2016-12-11T05:11:52.475Z,22.01
2016-12-11T05:13:02.107Z,22.1
2016-12-11T05:14:11.735Z,22.06
2016-12-11T05:15:21.363Z,21.99
2016-12-11T05:16:31.300Z,21.97
2016-12-11T05:17:40.951Z,22.04
2016-12-11T05:18:51.186Z,22
2016-12-11T05:20:00.837Z,22.06
2016-12-11T05:21:10.768Z,22.06
2016-12-11T05:22:20.698Z,21.97
2016-12-11T05:23:30.633Z,22
2016-12-11T05:24:40.570Z,21.99
2016-12-11T05:25:50.817Z,22.04
2016-12-11T05:27:00.742Z,22.04
2016-12-11T05:28:10.678Z,22.04
2016-12-11T05:29:20.593Z,21.96
2016-12-11T05:30:30.837Z,22.04
2016-12-11T05:31:40.147Z,22.01
2016-12-11T05:32:50.077Z,22.04
2016-12-11T05:33:59.693Z,21.99
2016-12-11T05:35:09.934Z,22.04
2016-12-11T05:36:19.860Z,21.97
2016-12-11T05:37:29.778Z,22.03
2016-12-11T05:38:39.395Z,21.94
2016-12-11T05:39:49.321Z,22.03
2016-12-11T05:40:59.564Z,21.96
2016-12-11T05:42:09.501Z,22.01
2016-12-11T05:43:19.137Z,22
2016-12-11T05:44:29.375Z,21.99
2016-12-11T05:45:39.295Z,21.99
2016-12-11T05:46:49.225Z,21.92
2016-12-11T05:47:58.838Z,22.04
2016-12-11T05:49:08.467Z,21.96
2016-12-11T05:50:17.759Z,22.04
2016-12-11T05:51:27.695Z,21.96
2016-12-11T05:52:37.025Z,22
2016-12-11T05:53:46.957Z,21.97
2016-12-11T05:54:56.272Z,21.97
2016-12-11T05:56:05.895Z,21.99
2016-12-11T05:57:15.816Z,21.97
2016-12-11T05:58:26.068Z,21.96
2016-12-11T05:59:35.693Z,22.03
2016-12-11T06:00:45.320Z,22
2016-12-11T06:01:54.933Z,21.99
2016-12-11T06:03:03.628Z,22
2016-12-11T06:04:13.878Z,21.99
2016-12-11T06:05:23.805Z,21.99
2016-12-11T06:06:33.754Z,21.85
2016-12-11T06:07:43.700Z,21.97
2016-12-11T06:08:53.322Z,21.92
2016-12-11T06:10:02.625Z,21.96
2016-12-11T06:11:12.555Z,21.92
2016-12-11T06:12:22.177Z,21.84
2016-12-11T06:13:32.416Z,21.96
2016-12-11T06:14:41.713Z,21.96
2016-12-11T06:15:51.947Z,21.99
2016-12-11T06:17:01.898Z,21.97
2016-12-11T06:18:12.143Z,21.92
2016-12-11T06:19:21.779Z,21.94
2016-12-11T06:20:31.716Z,21.96
2016-12-11T06:21:41.663Z,21.91
2016-12-11T06:22:51.021Z,21.94
2016-12-11T06:24:00.986Z,22
2016-12-11T06:25:10.618Z,21.85
2016-12-11T06:26:20.247Z,21.99
2016-12-11T06:27:30.492Z,21.94
2016-12-11T06:28:40.122Z,21.96
2016-12-11T06:29:50.057Z,22
2016-12-11T06:30:59.672Z,22
2016-12-11T06:32:09.614Z,21.99
2016-12-11T06:33:19.535Z,22.04
2016-12-11T06:34:29.172Z,22
2016-12-11T06:35:39.421Z,22.03
2016-12-11T06:36:49.068Z,21.97
2016-12-11T06:37:58.686Z,22.01
2016-12-11T06:39:08.928Z,21.97
2016-12-11T06:40:18.536Z,21.97
2016-12-11T06:41:28.158Z,22
2016-12-11T06:42:38.404Z,22.03
2016-12-11T06:43:48.637Z,21.99
2016-12-11T06:44:58.891Z,21.96
2016-12-11T06:46:08.813Z,22
2016-12-11T06:47:18.744Z,22.01
2016-12-11T06:48:28.977Z,21.96
2016-12-11T06:49:38.281Z,21.94
2016-12-11T06:50:48.230Z,21.96
2016-12-11T06:51:58.477Z,21.97
2016-12-11T06:53:08.091Z,21.97
2016-12-11T06:54:18.018Z,21.97
2016-12-11T06:55:27.950Z,21.96
2016-12-11T06:56:37.875Z,21.94
2016-12-11T06:57:47.808Z,21.97
2016-12-11T06:58:56.822Z,22.01
2016-12-11T07:00:06.448Z,21.96
2016-12-11T07:01:16.388Z,21.92
2016-12-11T07:02:26.329Z,22
2016-12-11T07:03:36.574Z,21.94
2016-12-11T07:04:46.488Z,22.03
2016-12-11T07:05:55.798Z,21.96
2016-12-11T07:07:06.037Z,21.97
2016-12-11T07:08:15.971Z,21.94
2016-12-11T07:09:25.901Z,21.99
2016-12-11T07:10:36.147Z,21.94
2016-12-11T07:11:45.452Z,22.01
2016-12-11T07:12:55.083Z,21.97
2016-12-11T07:14:05.075Z,22.07
2016-12-11T07:15:15.002Z,21.99
2016-12-11T07:16:25.272Z,22.06
2016-12-11T07:17:35.408Z,22.04
2016-12-11T07:18:45.337Z,22.06
2016-12-11T07:19:55.281Z,22.04
2016-12-11T07:21:04.899Z,21.99
2016-12-11T07:22:14.826Z,22.06
2016-12-11T07:23:24.787Z,22.06
2016-12-11T07:24:34.398Z,22.04
2016-12-11T07:25:44.343Z,22.01
2016-12-11T07:26:54.510Z,22.01
2016-12-11T07:28:04.443Z,22.07
2016-12-11T07:29:13.449Z,22.1
2016-12-11T07:30:23.373Z,22.08
2016-12-11T07:31:33.311Z,22.07
2016-12-11T07:32:42.636Z,22
2016-12-11T07:33:52.885Z,22.04
2016-12-11T07:35:02.197Z,21.99
2016-12-11T07:36:11.231Z,22.07
2016-12-11T07:37:21.171Z,22
2016-12-11T07:38:30.479Z,22.06
2016-12-11T07:39:40.119Z,22.03
2016-12-11T07:40:49.747Z,22.14
2016-12-11T07:42:00.017Z,22.04
2016-12-11T07:43:10.266Z,21.99
2016-12-11T07:44:20.507Z,22.14
2016-12-11T07:45:30.751Z,21.97
2016-12-11T07:46:40.072Z,22.1
2016-12-11T07:47:50.322Z,22.03
2016-12-11T07:49:00.576Z,22.06
2016-12-11T07:50:10.828Z,22.08
2016-12-11T07:51:20.185Z,22.03
2016-12-11T07:52:29.820Z,22.07
2016-12-11T07:53:39.440Z,22.06
2016-12-11T07:54:49.067Z,21.97
2016-12-11T07:55:59.036Z,22.07
2016-12-11T07:57:09.324Z,22.08
2016-12-11T07:58:19.277Z,22.07
2016-12-11T07:59:29.512Z,22
2016-12-11T08:00:39.146Z,22.04
2016-12-11T08:01:49.381Z,22.06
2016-12-11T08:02:59.013Z,22.03
2016-12-11T08:04:09.257Z,22.04
2016-12-11T08:05:19.510Z,22.04
2016-12-11T08:06:29.140Z,22.03
2016-12-11T08:07:38.767Z,22.1
2016-12-11T08:08:48.700Z,22.14
2016-12-11T08:09:58.941Z,22.08
2016-12-11T08:11:08.319Z,22.08
2016-12-11T08:12:17.957Z,22.15
2016-12-11T08:13:28.203Z,22.14
2016-12-11T08:14:38.380Z,22.12
2016-12-11T08:15:48.628Z,22.12
2016-12-11T08:16:58.259Z,22.07
2016-12-11T08:18:08.559Z,22.15
2016-12-11T08:19:18.185Z,22.18
2016-12-11T08:20:27.507Z,22.23
2016-12-11T08:21:37.436Z,22.08
2016-12-11T08:22:47.112Z,22.21
2016-12-11T08:23:56.426Z,22.16
2016-12-11T08:25:06.377Z,22.19
2016-12-11T08:26:16.319Z,22.22
2016-12-11T08:27:25.636Z,22.15
2016-12-11T08:28:35.583Z,22.16
2016-12-11T08:29:45.839Z,22.16
2016-12-11T08:30:55.479Z,22.19
2016-12-11T08:32:05.715Z,22.08
2016-12-11T08:33:15.954Z,22.18
2016-12-11T08:34:25.582Z,22.12
2016-12-11T08:35:35.557Z,22.23
2016-12-11T08:36:45.792Z,22.06
2016-12-11T08:37:55.434Z,22.14
2016-12-11T08:39:04.754Z,22.14
2016-12-11T08:40:14.389Z,22.15
2016-12-11T08:41:24.649Z,22.12
2016-12-11T08:42:34.602Z,22.18
2016-12-11T08:43:44.540Z,22.18
2016-12-11T08:44:54.470Z,22.18
2016-12-11T08:46:04.397Z,22.21
2016-12-11T08:47:14.327Z,22.14
2016-12-11T08:48:23.665Z,22.23
2016-12-11T08:49:33.592Z,22.08
2016-12-11T08:50:43.532Z,22.18
2016-12-11T08:51:53.157Z,22.14
2016-12-11T08:53:02.469Z,22.16
2016-12-11T08:54:12.721Z,22.1
2016-12-11T08:55:22.664Z,22.22
2016-12-11T08:56:32.895Z,22.16
2016-12-11T08:57:42.520Z,22.19
2016-12-11T08:58:52.485Z,22.12
2016-12-11T09:00:02.728Z,22.14
2016-12-11T09:01:12.360Z,22.14
2016-12-11T09:02:22.286Z,22.08
2016-12-11T09:03:31.917Z,22.15
2016-12-11T09:04:41.871Z,22.15
2016-12-11T09:05:51.806Z,22.18
2016-12-11T09:07:01.739Z,22.14
2016-12-11T09:08:11.369Z,22.08
2016-12-11T09:09:21.059Z,22.16
2016-12-11T09:10:30.383Z,22.15
2016-12-11T09:11:40.223Z,22.16
2016-12-11T09:12:50.160Z,22.3
2016-12-11T09:14:00.099Z,22.16
2016-12-11T09:15:09.739Z,22.25
2016-12-11T09:16:19.361Z,22.21
2016-12-11T09:17:28.982Z,22.18
2016-12-11T09:18:38.908Z,22.18
2016-12-11T09:19:48.840Z,22.19
2016-12-11T09:20:58.776Z,22.15
2016-12-11T09:22:09.025Z,22.28
2016-12-11T09:23:19.277Z,22.14
2016-12-11T09:24:28.912Z,22.16
2016-12-11T09:25:38.228Z,22.16
2016-12-11T09:26:48.501Z,22.19
2016-12-11T09:27:58.736Z,22.22
2016-12-11T09:29:08.667Z,22.22
2016-12-11T09:30:17.995Z,22.16
2016-12-11T09:31:28.244Z,22.22
2016-12-11T09:32:37.562Z,22.19
2016-12-11T09:33:46.890Z,22.15
2016-12-11T09:34:56.509Z,22.22
2016-12-11T09:36:06.496Z,22.19
2016-12-11T09:37:16.787Z,22.18
2016-12-11T09:38:26.410Z,22.18
2016-12-11T09:39:36.044Z,22.15
2016-12-11T09:40:45.976Z,22.18
2016-12-11T09:41:56.227Z,22.16
2016-12-11T09:43:05.852Z,22.22
2016-12-11T09:44:15.797Z,22.21
2016-12-11T09:45:25.424Z,22.18
2016-12-11T09:46:35.393Z,22.15
2016-12-11T09:47:45.020Z,22.22
2016-12-11T09:48:54.638Z,22.16
2016-12-11T09:50:04.566Z,22.18
2016-12-11T09:51:14.497Z,22.19
2016-12-11T09:52:23.807Z,22.15
2016-12-11T09:53:33.758Z,22.19
2016-12-11T09:54:43.691Z,22.22
2016-12-11T09:55:53.310Z,22.19
2016-12-11T09:57:02.955Z,22.19
2016-12-11T09:58:12.899Z,22.23
2016-12-11T09:59:22.529Z,22.15
2016-12-11T10:00:32.173Z,22.21
2016-12-11T10:01:42.112Z,22.25
2016-12-11T10:02:52.055Z,22.21
2016-12-11T10:04:02.291Z,22.21
2016-12-11T10:05:11.930Z,22.21
2016-12-11T10:06:21.252Z,22.19
2016-12-11T10:07:31.217Z,22.19
2016-12-11T10:08:41.152Z,22.19
2016-12-11T10:09:50.468Z,22.23
2016-12-11T10:11:00.719Z,22.16
2016-12-11T10:12:10.656Z,22.15
2016-12-11T10:13:20.277Z,22.21
2016-12-11T10:14:29.918Z,22.15
2016-12-11T10:15:39.871Z,22.25
2016-12-11T10:16:50.108Z,22.15
2016-12-11T10:18:00.372Z,22.16
2016-12-11T10:19:10.309Z,22.19
2016-12-11T10:20:20.265Z,22.15
2016-12-11T10:21:30.501Z,22.15
2016-12-11T10:22:40.778Z,22.16
2016-12-11T10:23:51.022Z,22.23
2016-12-11T10:25:01.318Z,22.18
2016-12-11T10:26:10.640Z,22.16
2016-12-11T10:27:20.599Z,22.18
2016-12-11T10:28:30.874Z,22.22
2016-12-11T10:29:40.197Z,22.08
2016-12-11T10:30:49.899Z,22.25
2016-12-11T10:31:59.838Z,22.04
2016-12-11T10:33:09.791Z,22.15
2016-12-11T10:34:19.739Z,22.16
2016-12-11T10:35:29.368Z,22.21
2016-12-11T10:36:38.996Z,22.15
2016-12-11T10:37:49.238Z,22.18
2016-12-11T10:38:58.859Z,22.19
2016-12-11T10:40:08.793Z,22.23
2016-12-11T10:41:18.109Z,22.14
2016-12-11T10:42:27.739Z,22.18
2016-12-11T10:43:38.007Z,22.16
2016-12-11T10:44:48.245Z,22.16
2016-12-11T10:45:57.576Z,22.08
2016-12-11T10:47:07.527Z,22.15
2016-12-11T10:48:17.166Z,22.14
2016-12-11T10:49:26.818Z,22.15
2016-12-11T10:50:36.457Z,22.1
2016-12-11T10:51:46.719Z,22.1
2016-12-11T10:52:56.655Z,22.18
2016-12-11T10:54:06.316Z,22.16
2016-12-11T10:55:16.247Z,22.14
2016-12-11T10:56:25.874Z,22.14
2016-12-11T10:57:35.506Z,22.15
2016-12-11T10:58:45.434Z,22.15
2016-12-11T10:59:55.070Z,22.12
2016-12-11T11:01:04.394Z,22.19
2016-12-11T11:02:14.333Z,22.14
2016-12-11T11:03:24.576Z,22.07
2016-12-11T11:04:34.528Z,22.12
2016-12-11T11:05:44.478Z,22.16
2016-12-11T11:06:54.439Z,22
2016-12-11T11:08:04.440Z,22.18
2016-12-11T11:09:14.728Z,22.15
2016-12-11T11:10:24.382Z,22.1
2016-12-11T11:11:34.674Z,22.15
2016-12-11T11:12:44.645Z,22.21
2016-12-11T11:13:54.610Z,22.18
2016-12-11T11:15:04.274Z,22.1
2016-12-11T11:16:14.562Z,22.1
2016-12-11T11:17:24.537Z,22.12
2016-12-11T11:18:34.803Z,22.12
2016-12-11T11:19:45.083Z,22.12
2016-12-11T11:20:55.362Z,22.23
2016-12-11T11:22:05.349Z,22.16
2016-12-11T11:23:15.029Z,22.15
2016-12-11T11:24:25.304Z,22.18
2016-12-11T11:25:34.972Z,22.18
2016-12-11T11:26:44.947Z,22.14
2016-12-11T11:27:55.238Z,22.07
2016-12-11T11:29:05.244Z,22.06
2016-12-11T11:30:15.223Z,22.14
2016-12-11T11:31:25.493Z,22.19
2016-12-11T11:32:35.764Z,22.12
2016-12-11T11:33:45.736Z,22.14
2016-12-11T11:34:55.701Z,22.14
2016-12-11T11:36:05.682Z,22.19
2016-12-11T11:37:15.980Z,22.1
2016-12-11T11:38:26.243Z,22.15
2016-12-11T11:39:36.529Z,22.15
2016-12-11T11:40:46.800Z,22.15
2016-12-11T11:41:57.073Z,22.12
2016-12-11T11:43:07.076Z,22.18
2016-12-11T11:44:17.046Z,22.1
2016-12-11T11:45:26.703Z,22.12
2016-12-11T11:46:37.023Z,22.18
2016-12-11T11:47:47.001Z,22.14
2016-12-11T11:48:56.970Z,22.15
2016-12-11T11:50:06.943Z,22.08
2016-12-11T11:51:17.219Z,22.06
2016-12-11T11:52:27.504Z,22.15
2016-12-11T11:53:37.479Z,22.15
2016-12-11T11:54:47.428Z,22.12
2016-12-11T11:55:57.707Z,22.21
2016-12-11T11:57:07.971Z,22.1
2016-12-11T11:58:18.262Z,22.16
2016-12-11T11:59:28.227Z,22.12
2016-12-11T12:00:38.212Z,22.08
2016-12-11T12:01:47.869Z,22.16
2016-12-11T12:02:57.852Z,22.07
2016-12-11T12:04:07.804Z,22.14
2016-12-11T12:05:17.761Z,22.06
2016-12-11T12:06:27.723Z,22.03
2016-12-11T12:07:37.372Z,22.07
2016-12-11T12:08:47.348Z,22.07
2016-12-11T12:09:57.304Z,22.14
2016-12-11T12:11:07.588Z,22.1
2016-12-11T12:12:17.569Z,22.14
2016-12-11T12:13:27.528Z,22.14
2016-12-11T12:14:37.780Z,22.06
2016-12-11T12:15:47.729Z,22.07
2016-12-11T12:16:58.011Z,22.01
2016-12-11T12:18:08.289Z,22.14
2016-12-11T12:19:17.950Z,22.04
2016-12-11T12:20:27.921Z,22.03
2016-12-11T12:21:38.199Z,22.08
2016-12-11T12:22:48.166Z,22.03
2016-12-11T12:23:58.422Z,22.08
2016-12-11T12:25:08.687Z,22.01
2016-12-11T12:26:18.670Z,22
2016-12-11T12:27:29.034Z,22
2016-12-11T12:28:39.304Z,22.06
2016-12-11T12:29:48.320Z,22.12
2016-12-11T12:30:57.665Z,22
2016-12-11T12:32:07.929Z,22.06
2016-12-11T12:33:17.904Z,22
2016-12-11T12:34:28.175Z,22.03
2016-12-11T12:35:37.817Z,22.08
2016-12-11T12:36:47.461Z,22.03
2016-12-11T12:37:57.442Z,22.08
2016-12-11T12:39:07.716Z,22
2016-12-11T12:40:17.675Z,22
2016-12-11T12:41:27.638Z,22.01
2016-12-11T12:42:37.609Z,22.08
2016-12-11T12:43:47.584Z,22.01
2016-12-11T12:44:57.874Z,22.14
2016-12-11T12:46:08.159Z,21.97
2016-12-11T12:47:18.118Z,21.99
2016-12-11T12:48:28.089Z,22
2016-12-11T12:49:37.754Z,22
2016-12-11T12:50:48.042Z,22.06
2016-12-11T12:51:58.326Z,22.1
2016-12-11T12:53:07.968Z,21.97
2016-12-11T12:54:18.241Z,22.04
2016-12-11T12:55:28.509Z,21.97
2016-12-11T12:56:38.476Z,22.1
2016-12-11T12:57:48.432Z,22.06
2016-12-11T12:58:58.408Z,21.99
2016-12-11T13:00:08.692Z,22.06
2016-12-11T13:01:18.346Z,21.97
2016-12-11T13:02:28.614Z,22.01
2016-12-11T13:03:38.885Z,22
2016-12-11T13:04:48.506Z,22.08
2016-12-11T13:05:58.778Z,22.08
2016-12-11T13:07:09.061Z,22.04
2016-12-11T13:08:19.361Z,22.04
2016-12-11T13:09:29.329Z,22.06
2016-12-11T13:10:39.597Z,22.03
2016-12-11T13:11:49.865Z,22
2016-12-11T13:12:59.831Z,22.06
2016-12-11T13:14:10.115Z,22.03
2016-12-11T13:15:20.058Z,22
2016-12-11T13:16:30.322Z,22.06
2016-12-11T13:17:40.565Z,22
2016-12-11T13:18:50.492Z,22.04
2016-12-11T13:19:59.824Z,21.99
2016-12-11T13:21:09.487Z,22.01
2016-12-11T13:22:19.467Z,22.01
2016-12-11T13:23:29.752Z,21.99
2016-12-11T13:24:40.027Z,21.97
2016-12-11T13:25:49.989Z,22.03
2016-12-11T13:27:00.299Z,22.03
2016-12-11T13:28:09.947Z,22.01
2016-12-11T13:29:19.611Z,21.99
2016-12-11T13:30:29.905Z,22.04
2016-12-11T13:31:39.893Z,22.06
2016-12-11T13:32:50.170Z,22.01
2016-12-11T13:34:00.447Z,22
2016-12-11T13:35:10.739Z,21.97
2016-12-11T13:36:21.013Z,22.04
2016-12-11T13:37:31.289Z,22.03
2016-12-11T13:38:41.557Z,21.96
2016-12-11T13:39:51.850Z,22
2016-12-11T13:41:01.811Z,21.96
2016-12-11T13:42:12.103Z,21.99
2016-12-11T13:43:22.070Z,22
2016-12-11T13:44:32.045Z,22.01
2016-12-11T13:45:42.341Z,21.99
2016-12-11T13:46:52.610Z,22.01
2016-12-11T13:48:02.562Z,22.04
2016-12-11T13:49:12.254Z,22.01
2016-12-11T13:50:22.248Z,22
2016-12-11T13:51:32.199Z,21.97
2016-12-11T13:52:42.476Z,22.04
2016-12-11T13:53:52.743Z,22.01
2016-12-11T13:55:03.034Z,21.99
2016-12-11T13:56:12.985Z,21.92
2016-12-11T13:57:23.262Z,22.03
2016-12-11T13:58:33.540Z,22.01
2016-12-11T13:59:43.820Z,22.03
2016-12-11T14:00:53.837Z,22.01
2016-12-11T14:02:03.834Z,22.03
2016-12-11T14:03:13.803Z,21.94
2016-12-11T14:04:23.774Z,22.04
2016-12-11T14:05:33.734Z,21.96
2016-12-11T14:06:43.388Z,21.97
2016-12-11T14:07:53.369Z,22.03
2016-12-11T14:09:03.638Z,22.01
2016-12-11T14:10:13.936Z,21.96
2016-12-11T14:11:24.202Z,21.94
2016-12-11T14:12:34.155Z,21.97
2016-12-11T14:13:44.125Z,22
2016-12-11T14:14:54.423Z,21.94
2016-12-11T14:16:04.404Z,22
2016-12-11T14:17:14.378Z,21.94
2016-12-11T14:18:24.400Z,21.96
2016-12-11T14:19:34.363Z,21.96
2016-12-11T14:20:44.318Z,22
2016-12-11T14:21:54.588Z,22.01
2016-12-11T14:23:04.241Z,21.99
2016-12-11T14:24:13.590Z,22.01
2016-12-11T14:25:23.560Z,21.92
2016-12-11T14:26:33.226Z,21.94
2016-12-11T14:27:42.892Z,21.85
2016-12-11T14:28:53.160Z,22.01
2016-12-11T14:30:02.813Z,22.01
2016-12-11T14:31:13.089Z,21.96
2016-12-11T14:32:23.077Z,21.96
2016-12-11T14:33:33.371Z,22
2016-12-11T14:34:43.659Z,22.06
2016-12-11T14:35:53.318Z,21.85
2016-12-11T14:37:03.594Z,22.03
2016-12-11T14:38:13.564Z,21.92
2016-12-11T14:39:23.825Z,21.97
2016-12-11T14:40:33.789Z,21.96
2016-12-11T14:41:44.094Z,21.99
2016-12-11T14:42:53.435Z,21.99
2016-12-11T14:44:03.708Z,22.01
2016-12-11T14:45:13.968Z,22
2016-12-11T14:46:24.240Z,22
2016-12-11T14:47:34.520Z,21.96
2016-12-11T14:48:44.832Z,21.88
2016-12-11T14:49:55.106Z,22
2016-12-11T14:51:05.398Z,21.91
2016-12-11T14:53:13.799Z,21.96
2016-12-11T14:54:24.070Z,21.91
2016-12-11T14:55:34.383Z,22
2016-12-11T14:56:44.664Z,21.96
2016-12-11T14:57:54.636Z,21.94
2016-12-11T14:59:04.603Z,21.91
2016-12-11T15:00:14.590Z,21.99
2016-12-11T15:01:24.882Z,21.96
2016-12-11T15:02:34.867Z,21.81
2016-12-11T15:03:45.136Z,22
2016-12-11T15:04:55.408Z,21.96
2016-12-11T15:06:05.693Z,21.94
2016-12-11T15:07:15.659Z,21.99